createdAt,value
2019-04-26T00:00:22.934Z,64.42
2019-04-26T00:04:24.918Z,64.79
2019-04-26T00:08:26.811Z,65.20
2019-04-26T00:13:24.790Z,65.55
2019-04-26T00:16:56.751Z,65.76
2019-04-26T00:20:58.991Z,66.89
2019-04-26T00:25:01.777Z,68.54
2019-04-26T00:29:03.783Z,68.45
2019-04-26T00:33:05.813Z,63.70
2019-04-26T00:37:07.839Z,62.81
2019-04-26T00:41:12.684Z,64.15
2019-04-26T00:45:15.064Z,65.12
2019-04-26T00:49:19.217Z,65.57
2019-04-26T00:53:24.378Z,66.16
2019-04-26T00:57:27.836Z,67.83
2019-04-26T01:01:31.691Z,67.85
2019-04-26T01:05:35.244Z,67.48
2019-04-26T01:09:37.155Z,67.96
2019-04-26T01:13:39.057Z,69.28
2019-04-26T01:17:40.973Z,68.17
2019-04-26T01:21:47.445Z,68.12
2019-04-26T01:26:05.702Z,68.68
2019-04-26T01:30:12.675Z,69.86
2019-04-26T01:34:14.705Z,70.42
2019-04-26T01:38:17.386Z,70.52
2019-04-26T01:42:30.017Z,70.56
2019-04-26T01:46:51.427Z,70.66
2019-04-26T01:51:11.737Z,71.36
2019-04-26T01:55:17.289Z,71.69
2019-04-26T01:59:22.187Z,71.31
2019-04-26T02:03:26.407Z,70.12
2019-04-26T02:07:41.428Z,70.35
2019-04-26T02:11:43.878Z,71.62
2019-04-26T02:15:45.856Z,72.81
2019-04-26T02:19:48.036Z,73.21
2019-04-26T02:24:08.291Z,72.71
2019-04-26T02:28:10.308Z,73.93
2019-04-26T02:32:12.581Z,74.89
2019-04-26T02:36:15.126Z,73.16
2019-04-26T02:40:19.712Z,74.02
2019-04-26T02:44:29.058Z,74.32
2019-04-26T02:48:52.053Z,74.75
2019-04-26T02:53:04.502Z,74.73
2019-04-26T02:57:06.676Z,75.18
2019-04-26T03:01:09.099Z,74.96
2019-04-26T03:05:11.866Z,75.18
2019-04-26T03:09:16.510Z,74.88
2019-04-26T03:13:23.279Z,75.47
2019-04-26T03:17:38.159Z,75.55
2019-04-26T03:21:57.343Z,75.40
2019-04-26T03:26:26.334Z,75.19
2019-04-26T03:31:00.340Z,74.84
2019-04-26T03:35:23.055Z,75.35
2019-04-26T03:39:47.844Z,76.92
2019-04-26T03:44:05.913Z,78.38
2019-04-26T03:48:46.026Z,79.12
2019-04-26T03:53:12.224Z,78.29
2019-04-26T03:57:50.074Z,77.31
2019-04-26T04:01:58.177Z,76.92
2019-04-26T04:06:04.633Z,77.74
2019-04-26T04:10:23.054Z,76.50
2019-04-26T04:15:00.116Z,76.19
2019-04-26T04:19:28.833Z,75.35
2019-04-26T04:23:48.725Z,74.69
2019-04-26T04:28:07.183Z,74.33
2019-04-26T04:32:36.429Z,74.07
2019-04-26T04:36:51.293Z,73.64
2019-04-26T04:41:10.480Z,73.93
2019-04-26T04:46:10.925Z,73.78
2019-04-26T04:50:17.518Z,73.75
2019-04-26T04:54:26.797Z,73.85
2019-04-26T04:58:52.443Z,74.15
2019-04-26T05:03:28.124Z,73.74
2019-04-26T05:08:13.950Z,73.96
2019-04-26T05:12:31.073Z,73.36
2019-04-26T05:17:28.040Z,73.48
2019-04-26T05:21:40.402Z,73.38
2019-04-26T05:26:16.497Z,73.13
2019-04-26T05:30:42.330Z,72.70
2019-04-26T05:35:02.055Z,72.15
2019-04-26T05:39:20.234Z,71.27
2019-04-26T05:43:46.245Z,71.34
2019-04-26T05:48:30.295Z,70.19
2019-04-26T05:53:10.246Z,70.47
2019-04-26T05:57:24.425Z,69.32
2019-04-26T06:02:01.057Z,68.77
2019-04-26T06:06:29.306Z,68.22
2019-04-26T06:10:43.204Z,68.23
2019-04-26T06:15:27.778Z,67.78
2019-04-26T06:20:23.630Z,68.36
2019-04-26T06:24:38.747Z,67.51
2019-04-26T06:29:01.055Z,67.31
2019-04-26T06:33:19.122Z,65.95
2019-04-26T06:37:36.148Z,65.78
2019-04-26T06:42:05.160Z,65.53
2019-04-26T06:46:43.046Z,65.51
2019-04-26T06:51:24.668Z,65.79
2019-04-26T06:55:25.057Z,64.91
2019-04-26T07:00:17.359Z,64.96
2019-04-26T07:04:43.524Z,64.56
2019-04-26T07:08:57.490Z,64.26
2019-04-26T07:13:32.927Z,63.85
2019-04-26T07:17:51.475Z,62.78
2019-04-26T07:22:19.828Z,62.30
2019-04-26T07:26:50.348Z,61.00
2019-04-26T07:31:06.239Z,61.02
2019-04-26T07:35:19.651Z,60.66
2019-04-26T07:39:39.736Z,60.56
2019-04-26T07:44:12.809Z,60.15
2019-04-26T07:48:41.549Z,60.78
2019-04-26T07:53:09.324Z,60.93
2019-04-26T07:58:03.572Z,60.56
2019-04-26T08:02:32.287Z,60.09
2019-04-26T08:06:56.071Z,60.44
2019-04-26T08:11:12.832Z,60.85
2019-04-26T08:15:21.327Z,59.98
2019-04-26T08:19:26.928Z,60.24
2019-04-26T08:23:41.929Z,60.30
2019-04-26T08:27:42.291Z,59.40
2019-04-26T08:31:48.817Z,59.43
2019-04-26T08:35:55.374Z,59.78
2019-04-26T08:39:59.472Z,60.36
2019-04-26T08:44:09.769Z,60.34
2019-04-26T08:48:23.350Z,59.95
2019-04-26T08:52:26.622Z,60.25
2019-04-26T08:56:47.704Z,59.72
2019-04-26T09:00:58.543Z,59.38
2019-04-26T09:05:25.261Z,59.15
2019-04-26T09:09:32.427Z,58.05
2019-04-26T09:13:38.993Z,58.59
2019-04-26T09:17:40.911Z,57.77
2019-04-26T09:21:47.399Z,57.57
2019-04-26T09:25:59.087Z,57.50
2019-04-26T09:29:54.982Z,56.45
2019-04-26T09:33:58.527Z,55.93
2019-04-26T09:38:00.446Z,55.91
2019-04-26T09:42:12.771Z,56.19
2019-04-26T09:46:17.021Z,56.49
2019-04-26T09:50:26.778Z,56.82
2019-04-26T09:54:28.861Z,56.79
2019-04-26T09:58:32.192Z,57.07
2019-04-26T10:02:35.405Z,58.05
2019-04-26T10:06:37.433Z,56.42
2019-04-26T10:10:39.425Z,56.71
2019-04-26T10:14:43.047Z,58.57
2019-04-26T10:18:50.517Z,59.11
2019-04-26T10:22:52.439Z,59.07
2019-04-26T10:26:55.515Z,59.13
2019-04-26T10:30:57.576Z,59.73
2019-04-26T10:34:59.651Z,59.82
2019-04-26T10:39:01.565Z,60.17
2019-04-26T10:43:06.392Z,61.31
2019-04-26T10:47:08.548Z,61.15
2019-04-26T10:51:11.232Z,62.43
2019-04-26T10:55:21.361Z,62.29
2019-04-26T10:59:25.290Z,62.49
2019-04-26T11:03:27.520Z,63.89
2019-04-26T11:07:30.385Z,64.36
2019-04-26T11:11:32.746Z,65.05
2019-04-26T11:15:34.844Z,65.60
2019-04-26T11:19:36.821Z,65.50
2019-04-26T11:23:41.074Z,64.94
2019-04-26T11:27:44.326Z,65.55
2019-04-26T11:31:46.099Z,65.91
2019-04-26T11:35:48.154Z,65.98
2019-04-26T11:39:50.088Z,66.78
2019-04-26T11:43:52.956Z,66.34
2019-04-26T11:47:56.601Z,66.04
2019-04-26T11:52:02.656Z,67.20
2019-04-26T11:56:04.598Z,66.94
2019-04-26T12:00:11.096Z,67.40
2019-04-26T12:04:20.149Z,67.18
2019-04-26T12:08:26.587Z,66.83
2019-04-26T12:12:28.596Z,66.51
2019-04-26T12:16:30.574Z,67.50
2019-04-26T12:20:32.779Z,67.57
2019-04-26T12:24:34.695Z,67.41
2019-04-26T12:28:40.040Z,67.49
2019-04-26T12:32:40.209Z,67.46
2019-04-26T12:36:42.142Z,67.35
2019-04-26T12:40:46.179Z,67.56
2019-04-26T12:45:05.499Z,68.21
2019-04-26T12:49:07.864Z,68.32
2019-04-26T12:53:09.797Z,68.69
2019-04-26T12:57:11.688Z,68.22
2019-04-26T13:01:14.367Z,68.19
2019-04-26T13:05:18.886Z,68.99
2019-04-26T13:09:26.190Z,69.52
2019-04-26T13:13:26.756Z,69.53
2019-04-26T13:17:31.347Z,69.02
2019-04-26T13:21:37.146Z,68.28
2019-04-26T13:25:40.428Z,67.69
2019-04-26T13:29:41.452Z,67.19
2019-04-26T13:33:43.390Z,66.85
2019-04-26T13:37:48.443Z,67.31
2019-04-26T13:42:02.119Z,68.02
2019-04-26T13:45:56.576Z,68.28
2019-04-26T13:50:12.237Z,68.18
2019-04-26T13:54:16.667Z,67.97
2019-04-26T13:58:20.952Z,67.81
2019-04-26T14:02:21.536Z,68.92
2019-04-26T14:06:23.554Z,68.38
2019-04-26T14:10:25.614Z,68.91
2019-04-26T14:14:30.289Z,70.09
2019-04-26T14:18:34.515Z,70.26
2019-04-26T14:22:37.068Z,70.42
2019-04-26T14:26:41.761Z,71.11
2019-04-26T14:30:43.786Z,72.42
2019-04-26T14:34:45.773Z,73.37
2019-04-26T14:39:05.731Z,74.53
2019-04-26T14:43:06.797Z,75.06
2019-04-26T14:47:13.844Z,76.55
2019-04-26T14:51:12.506Z,77.87
2019-04-26T14:55:16.534Z,78.34
2019-04-26T14:59:18.062Z,78.98
2019-04-26T15:03:24.478Z,79.72
2019-04-26T15:07:28.298Z,81.18
2019-04-26T15:11:32.292Z,81.48
2019-04-26T15:15:34.670Z,81.37
2019-04-26T15:19:40.314Z,82.13
2019-04-26T15:23:40.261Z,82.03
2019-04-26T15:27:44.121Z,82.40
2019-04-26T15:31:45.750Z,83.38
2019-04-26T15:35:48.706Z,82.89
2019-04-26T15:40:02.367Z,82.32
2019-04-26T15:44:07.732Z,83.94
2019-04-26T15:48:40.610Z,84.08
2019-04-26T15:52:43.891Z,83.92
2019-04-26T15:56:49.372Z,83.92
2019-04-26T16:00:49.555Z,84.51
2019-04-26T16:04:54.408Z,84.63
2019-04-26T16:08:55.080Z,83.59
2019-04-26T16:13:01.276Z,83.60
2019-04-26T16:17:03.166Z,83.62
2019-04-26T16:21:04.345Z,83.58
2019-04-26T16:25:07.958Z,83.78
2019-04-26T16:29:09.630Z,84.50
2019-04-26T16:33:13.489Z,85.34
2019-04-26T16:37:21.834Z,85.98
2019-04-26T16:41:21.762Z,86.28
2019-04-26T16:45:23.858Z,85.66
2019-04-26T16:49:25.771Z,86.16
2019-04-26T16:53:43.855Z,86.48
2019-04-26T16:57:31.418Z,87.14
2019-04-26T17:01:33.518Z,87.01
2019-04-26T17:05:46.848Z,87.34
2019-04-26T17:09:57.034Z,87.19
2019-04-26T17:13:51.223Z,86.75
2019-04-26T17:17:50.390Z,85.82
2019-04-26T17:21:56.495Z,87.49
2019-04-26T17:26:04.021Z,87.62
2019-04-26T17:46:43.479Z,87.44
2019-04-26T17:50:45.661Z,86.82
2019-04-26T18:03:01.879Z,88.60
2019-04-26T18:07:33.363Z,88.51
2019-04-26T18:11:07.762Z,88.24
2019-04-26T18:15:12.514Z,87.99
2019-04-26T18:19:15.501Z,87.79
2019-04-26T18:23:18.842Z,87.62
2019-04-26T18:31:29.112Z,87.13
2019-04-26T18:35:33.731Z,86.74
2019-04-26T18:39:36.633Z,86.63
2019-04-26T18:43:38.533Z,86.82
2019-04-26T18:47:45.047Z,86.75
2019-04-26T18:51:48.489Z,87.14
2019-04-26T18:55:50.921Z,86.44
2019-04-26T18:59:52.963Z,86.58
2019-04-26T19:03:54.983Z,86.99
2019-04-26T19:07:56.891Z,85.88
2019-04-26T19:11:58.875Z,87.12
2019-04-26T19:16:18.810Z,85.69
2019-04-26T19:20:28.298Z,86.16
2019-04-26T19:24:30.193Z,86.95
2019-04-26T19:28:32.106Z,87.74
2019-04-26T19:32:35.375Z,87.18
2019-04-26T19:36:37.688Z,87.27
2019-04-26T19:40:46.474Z,86.83
2019-04-26T19:44:43.188Z,86.06
2019-04-26T19:49:00.063Z,86.14
2019-04-26T19:53:14.244Z,86.52
2019-04-26T19:57:21.728Z,86.18
2019-04-26T20:01:25.069Z,86.59
2019-04-26T20:05:26.959Z,85.39
2019-04-26T20:09:29.143Z,85.57
2019-04-26T20:13:31.685Z,86.09
2019-04-26T20:17:33.778Z,86.19
2019-04-26T20:21:35.979Z,86.01
2019-04-26T20:25:37.882Z,86.57
2019-04-26T20:29:40.800Z,87.21
2019-04-26T20:33:43.383Z,86.99
2019-04-26T20:37:45.791Z,86.74
2019-04-26T20:42:00.313Z,86.17
2019-04-26T20:46:10.601Z,86.55
2019-04-26T20:50:01.126Z,86.59
2019-04-26T20:53:58.671Z,86.90
2019-04-26T20:58:07.057Z,87.09
2019-04-26T21:02:08.136Z,87.18
2019-04-26T21:06:07.877Z,86.77
2019-04-26T21:10:15.214Z,86.88
2019-04-26T21:14:13.918Z,87.09
2019-04-26T21:18:15.812Z,87.38
2019-04-26T21:22:25.470Z,87.06
2019-04-26T21:26:24.345Z,86.75
2019-04-26T21:30:38.657Z,86.72
2019-04-26T21:34:46.443Z,87.08
2019-04-26T21:38:48.218Z,86.99
2019-04-26T21:42:53.818Z,86.85
2019-04-26T21:46:58.660Z,87.13
2019-04-26T21:50:57.414Z,86.76
2019-04-26T21:54:59.311Z,87.25
2019-04-26T21:59:03.458Z,88.06
2019-04-26T22:03:07.800Z,88.16
2019-04-26T22:07:09.257Z,88.42
2019-04-26T22:11:13.982Z,88.47
2019-04-26T22:15:35.853Z,88.75
2019-04-26T22:19:36.213Z,88.90
2019-04-26T22:23:39.749Z,88.42
2019-04-26T22:27:43.630Z,88.87
2019-04-26T22:31:45.305Z,89.05
2019-04-26T22:35:50.578Z,88.99
2019-04-26T22:39:50.816Z,88.81
2019-04-26T22:43:57.029Z,88.53
2019-04-26T22:47:58.728Z,88.23
2019-04-26T22:52:00.611Z,88.73
2019-04-26T22:56:03.316Z,89.08
2019-04-26T23:00:07.551Z,89.02
2019-04-26T23:04:11.488Z,88.82
2019-04-26T23:08:13.732Z,88.75
2019-04-26T23:12:27.963Z,88.66
2019-04-26T23:17:08.478Z,88.47
2019-04-26T23:21:33.877Z,88.62
2019-04-26T23:25:37.032Z,88.43
2019-04-26T23:29:39.249Z,88.50
2019-04-26T23:33:42.834Z,88.53
2019-04-26T23:37:46.003Z,89.03
2019-04-26T23:41:49.091Z,88.95
2019-04-26T23:45:51.000Z,88.98
2019-04-26T23:49:53.850Z,88.50
2019-04-26T23:53:57.896Z,88.59
2019-04-26T23:58:00.497Z,88.53
